createdAt,value
2022-08-11T00:01:20.183Z,102413.34
2022-08-11T00:03:54.343Z,102415.56
2022-08-11T00:06:31.101Z,102420.31
2022-08-11T00:08:59.242Z,102413.13
2022-08-11T00:11:41.153Z,102410.53
2022-08-11T00:14:37.827Z,102414.69
2022-08-11T00:17:16.064Z,102411.94
2022-08-11T00:20:12.374Z,102397.22
2022-08-11T00:22:38.218Z,102411.91
2022-08-11T00:25:14.225Z,102410.31
2022-08-11T00:27:41.864Z,102413.38
2022-08-11T00:30:10.540Z,102410.63
2022-08-11T00:32:43.731Z,102410.78
2022-08-11T00:35:55.216Z,102414.25
2022-08-11T00:38:04.661Z,102412.56
2022-08-11T00:40:42.045Z,102412.94
2022-08-11T00:43:22.449Z,102416.63
2022-08-11T00:46:16.299Z,102404.41
2022-08-11T00:49:02.409Z,102404.69
2022-08-11T00:52:04.759Z,102416.63
2022-08-11T00:54:50.379Z,102414.78
2022-08-11T00:57:44.768Z,102413.69
2022-08-11T01:00:13.415Z,102409.06
2022-08-11T01:02:59.431Z,102415.81
2022-08-11T01:05:51.756Z,102420.66
2022-08-11T01:08:52.486Z,102413.81
2022-08-11T01:11:56.054Z,102408.44
2022-08-11T01:14:34.011Z,102411.22
2022-08-11T01:17:29.001Z,102408.84
2022-08-11T01:20:46.843Z,102408.53
2022-08-11T01:23:49.485Z,102413.34
2022-08-11T01:26:44.054Z,102416.25
2022-08-11T01:29:33.944Z,102407.78
2022-08-11T01:32:33.601Z,102407.59
2022-08-11T01:35:15.023Z,102410.63
2022-08-11T01:38:09.509Z,102407.13
2022-08-11T01:41:04.540Z,102404.59
2022-08-11T01:44:30.906Z,102403.16
2022-08-11T01:47:35.199Z,102415.91
2022-08-11T01:50:33.082Z,102413.16
2022-08-11T01:53:24.013Z,102414.03
2022-08-11T01:55:58.001Z,102408.16
2022-08-11T01:58:47.604Z,102409.41
2022-08-11T02:01:20.337Z,102409.66
2022-08-11T02:03:58.971Z,102408.66
2022-08-11T02:06:56.670Z,102401.91
2022-08-11T02:09:40.003Z,102409.50
2022-08-11T02:12:26.596Z,102398.53
2022-08-11T02:15:15.103Z,102393.31
2022-08-11T02:18:03.425Z,102402.59
2022-08-11T02:20:59.563Z,102397.41
2022-08-11T02:24:04.303Z,102395.53
2022-08-11T02:26:33.974Z,102389.19
2022-08-11T02:29:18.806Z,102390.28
2022-08-11T02:32:33.774Z,102398.94
2022-08-11T02:35:36.779Z,102387.53
2022-08-11T02:38:17.098Z,102396.19
2022-08-11T02:40:58.833Z,102384.81
2022-08-11T02:43:52.961Z,102385.22
2022-08-11T02:46:47.203Z,102385.28
2022-08-11T02:50:02.642Z,102387.06
2022-08-11T02:52:59.135Z,102390.03
2022-08-11T02:55:47.940Z,102395.94
2022-08-11T02:59:25.223Z,102388.19
2022-08-11T03:02:16.450Z,102389.22
2022-08-11T03:05:01.150Z,102394.50
2022-08-11T03:07:40.738Z,102393.22
2022-08-11T03:10:43.204Z,102399.75
2022-08-11T03:13:40.808Z,102396.00
2022-08-11T03:16:42.777Z,102393.31
2022-08-11T03:19:18.446Z,102406.44
2022-08-11T03:22:06.338Z,102398.84
2022-08-11T03:24:48.403Z,102391.72
2022-08-11T03:27:28.453Z,102392.81
2022-08-11T03:30:10.237Z,102391.53
2022-08-11T03:33:25.914Z,102391.78
2022-08-11T03:36:18.307Z,102396.41
2022-08-11T03:39:06.225Z,102404.44
2022-08-11T03:42:04.273Z,102406.13
2022-08-11T03:44:47.941Z,102394.75
2022-08-11T03:47:33.377Z,102399.81
2022-08-11T03:50:12.145Z,102405.72
2022-08-11T03:53:08.670Z,102393.09
2022-08-11T03:56:13.024Z,102395.00
2022-08-11T03:58:46.600Z,102400.28
2022-08-11T04:01:19.185Z,102396.50
2022-08-11T04:04:14.372Z,102405.13
2022-08-11T04:07:17.531Z,102387.00
2022-08-11T04:10:02.668Z,102393.09
2022-08-11T04:12:37.209Z,102402.16
2022-08-11T04:15:56.246Z,102396.91
2022-08-11T04:19:00.862Z,102399.44
2022-08-11T04:21:27.365Z,102398.16
2022-08-11T04:24:38.575Z,102394.38
2022-08-11T04:27:24.377Z,102393.31
2022-08-11T04:30:12.124Z,102395.41
2022-08-11T04:33:17.095Z,102394.94
2022-08-11T04:35:58.247Z,102395.97
2022-08-11T04:38:59.138Z,102396.78
2022-08-11T04:41:57.759Z,102394.66
2022-08-11T04:44:52.033Z,102392.47
2022-08-11T04:48:21.763Z,102389.31
2022-08-11T04:51:27.316Z,102390.97
2022-08-11T04:54:28.306Z,102385.84
2022-08-11T04:57:22.081Z,102389.41
2022-08-11T05:00:27.222Z,102388.06
2022-08-11T05:03:31.167Z,102388.56
2022-08-11T05:05:57.703Z,102387.53
2022-08-11T05:08:49.915Z,102390.84
2022-08-11T05:11:50.047Z,102390.03
2022-08-11T05:15:00.514Z,102393.53
2022-08-11T05:17:56.506Z,102394.19
2022-08-11T05:20:45.393Z,102386.03
2022-08-11T05:23:32.374Z,102396.22
2022-08-11T05:26:47.541Z,102397.94
2022-08-11T05:29:54.859Z,102396.59
2022-08-11T05:32:42.505Z,102391.53
2022-08-11T05:35:10.175Z,102395.78
2022-08-11T05:38:05.723Z,102402.53
2022-08-11T05:40:53.877Z,102405.00
2022-08-11T05:44:21.487Z,102409.53
2022-08-11T05:46:59.643Z,102407.06
2022-08-11T05:49:50.727Z,102401.34
2022-08-11T05:52:41.810Z,102402.22
2022-08-11T05:55:29.081Z,102396.97
2022-08-11T05:58:05.169Z,102401.22
2022-08-11T06:00:41.179Z,102406.00
2022-08-11T06:03:11.056Z,102406.47
2022-08-11T06:05:43.636Z,102412.84
2022-08-11T06:08:14.518Z,102405.16
2022-08-11T06:10:43.923Z,102403.13
2022-08-11T06:13:15.318Z,102412.31
2022-08-11T06:15:50.825Z,102408.13
2022-08-11T06:18:18.436Z,102409.41
2022-08-11T06:20:49.874Z,102403.66
2022-08-11T06:23:19.526Z,102408.53
2022-08-11T06:25:47.121Z,102404.16
2022-08-11T06:28:20.581Z,102395.81
2022-08-11T06:30:49.017Z,102403.25
2022-08-11T06:33:29.938Z,102396.88
2022-08-11T06:36:12.005Z,102410.19
2022-08-11T06:39:02.421Z,102405.31
2022-08-11T06:42:04.139Z,102408.69
2022-08-11T06:44:44.484Z,102408.75
2022-08-11T06:47:18.125Z,102401.13
2022-08-11T06:50:05.922Z,102407.84
2022-08-11T06:52:39.087Z,102411.59
2022-08-11T06:55:57.349Z,102415.53
2022-08-11T06:58:49.805Z,102411.56
2022-08-11T07:01:27.475Z,102412.81
2022-08-11T07:04:05.493Z,102412.75
2022-08-11T07:06:50.886Z,102408.56
2022-08-11T07:10:15.198Z,102421.97
2022-08-11T07:13:03.209Z,102418.72
2022-08-11T07:16:09.007Z,102414.91
2022-08-11T07:18:54.027Z,102409.50
2022-08-11T07:22:02.481Z,102413.19
2022-08-11T07:25:02.257Z,102411.41
2022-08-11T07:27:55.928Z,102418.19
2022-08-11T07:30:25.560Z,102410.13
2022-08-11T07:32:55.784Z,102409.31
2022-08-11T07:35:43.951Z,102410.38
2022-08-11T07:38:22.748Z,102416.78
2022-08-11T07:40:52.104Z,102407.09
2022-08-11T07:43:18.880Z,102416.25
2022-08-11T07:46:05.054Z,102414.91
2022-08-11T07:48:52.818Z,102414.16
2022-08-11T07:51:41.221Z,102416.13
2022-08-11T07:54:16.198Z,102422.53
2022-08-11T07:57:07.378Z,102419.19
2022-08-11T08:00:00.622Z,102420.56
2022-08-11T08:02:50.343Z,102419.75
2022-08-11T08:05:37.565Z,102422.50
2022-08-11T08:08:23.775Z,102418.88
2022-08-11T08:11:09.580Z,102424.44
2022-08-11T08:13:56.417Z,102418.03
2022-08-11T08:16:42.034Z,102424.13
2022-08-11T08:19:13.428Z,102423.00
2022-08-11T08:21:40.602Z,102432.38
2022-08-11T08:24:15.556Z,102419.53
2022-08-11T08:27:00.866Z,102428.91
2022-08-11T08:29:59.260Z,102422.19
2022-08-11T08:32:29.873Z,102421.91
2022-08-11T08:34:58.710Z,102422.63
2022-08-11T08:37:46.773Z,102416.66
2022-08-11T08:40:14.793Z,102422.44
2022-08-11T08:42:58.600Z,102417.69
2022-08-11T08:45:34.301Z,102423.88
2022-08-11T08:48:12.479Z,102424.34
2022-08-11T08:51:08.069Z,102427.41
2022-08-11T08:53:39.189Z,102416.28
2022-08-11T08:56:25.123Z,102414.44
2022-08-11T08:58:51.897Z,102418.00
2022-08-11T09:01:22.404Z,102419.63
2022-08-11T09:04:04.957Z,102418.41
2022-08-11T09:06:40.371Z,102414.63
2022-08-11T09:09:09.000Z,102413.09
2022-08-11T09:11:55.534Z,102408.88
2022-08-11T09:14:50.633Z,102407.88
2022-08-11T09:17:21.552Z,102396.50
2022-08-11T09:19:49.596Z,102400.25
2022-08-11T09:22:42.438Z,102404.50
2022-08-11T09:25:28.377Z,102400.88
2022-08-11T09:27:56.703Z,102398.72
2022-08-11T09:30:26.018Z,102402.72
2022-08-11T09:33:00.429Z,102401.09
2022-08-11T09:35:34.528Z,102396.81
2022-08-11T09:38:20.548Z,102394.44
2022-08-11T09:40:52.717Z,102387.19
2022-08-11T09:43:43.579Z,102385.44
2022-08-11T09:46:10.977Z,102388.69
2022-08-11T09:48:46.228Z,102379.59
2022-08-11T09:51:14.475Z,102384.16
2022-08-11T09:53:58.435Z,102373.47
2022-08-11T09:56:49.746Z,102371.31
2022-08-11T09:59:20.651Z,102368.28
2022-08-11T10:01:50.540Z,102363.47
2022-08-11T10:04:23.121Z,102363.59
2022-08-11T10:07:06.765Z,102360.28
2022-08-11T10:10:01.399Z,102353.44
2022-08-11T10:12:34.151Z,102356.25
2022-08-11T10:15:23.867Z,102354.78
2022-08-11T10:18:15.992Z,102358.09
2022-08-11T10:20:50.318Z,102355.00
2022-08-11T10:23:36.430Z,102350.22
2022-08-11T10:26:48.710Z,102349.19
2022-08-11T10:29:37.441Z,102343.34
2022-08-11T10:32:31.635Z,102337.34
2022-08-11T10:35:01.874Z,102342.34
2022-08-11T10:38:06.492Z,102346.44
2022-08-11T10:40:24.047Z,102330.25
2022-08-11T10:43:06.013Z,102343.69
2022-08-11T10:45:57.016Z,102336.13
2022-08-11T10:48:27.193Z,102338.03
2022-08-11T10:51:13.894Z,102335.13
2022-08-11T10:54:04.989Z,102335.38
2022-08-11T10:56:55.184Z,102336.50
2022-08-11T10:59:25.433Z,102335.81
2022-08-11T11:01:54.429Z,102332.56
2022-08-11T11:04:59.047Z,102327.84
2022-08-11T11:07:41.525Z,102332.44
2022-08-11T11:10:12.025Z,102320.59
2022-08-11T11:13:16.770Z,102332.31
2022-08-11T11:16:05.810Z,102326.88
2022-08-11T11:18:36.752Z,102327.88
2022-08-11T11:21:07.559Z,102320.03
2022-08-11T11:23:50.293Z,102311.56
2022-08-11T11:26:41.266Z,102318.81
2022-08-11T11:29:46.794Z,102322.97
2022-08-11T11:32:19.032Z,102317.50
2022-08-11T11:35:08.466Z,102317.38
2022-08-11T11:37:37.262Z,102313.22
2022-08-11T11:40:16.480Z,102323.59
2022-08-11T11:42:46.267Z,102323.53
2022-08-11T11:45:23.419Z,102320.06
2022-08-11T11:47:54.015Z,102318.75
2022-08-11T11:50:36.535Z,102320.25
2022-08-11T11:53:09.199Z,102314.78
2022-08-11T11:55:37.524Z,102321.09
2022-08-11T11:58:25.451Z,102307.06
2022-08-11T12:01:12.566Z,102308.94
2022-08-11T12:03:41.283Z,102313.38
2022-08-11T12:06:12.161Z,102305.88
2022-08-11T12:08:39.587Z,102311.09
2022-08-11T12:11:28.466Z,102302.59
2022-08-11T12:13:59.324Z,102307.97
2022-08-11T12:16:33.091Z,102306.06
2022-08-11T12:19:06.177Z,102301.09
2022-08-11T12:21:35.434Z,102306.28
2022-08-11T12:24:22.091Z,102290.09
2022-08-11T12:27:14.677Z,102292.31
2022-08-11T12:29:41.394Z,102287.19
2022-08-11T12:32:11.522Z,102275.34
2022-08-11T12:34:38.409Z,102283.56
2022-08-11T12:37:13.279Z,102280.34
2022-08-11T12:40:43.130Z,102284.91
2022-08-11T12:43:40.615Z,102267.63
2022-08-11T12:46:14.306Z,102278.53
2022-08-11T12:49:04.280Z,102273.91
2022-08-11T12:52:10.997Z,102270.25
2022-08-11T12:55:00.070Z,102266.38
2022-08-11T12:57:47.601Z,102260.78
2022-08-11T13:00:34.266Z,102256.38
2022-08-11T13:03:20.217Z,102254.06
2022-08-11T13:05:47.959Z,102249.66
2022-08-11T13:08:15.694Z,102256.72
2022-08-11T13:11:02.661Z,102245.31
2022-08-11T13:13:55.648Z,102239.56
2022-08-11T13:16:18.075Z,102228.69
2022-08-11T13:18:45.430Z,102229.22
2022-08-11T13:21:20.060Z,102224.63
2022-08-11T13:24:00.734Z,102234.31
2022-08-11T13:26:47.426Z,102219.13
2022-08-11T13:29:28.208Z,102222.91
2022-08-11T13:31:59.748Z,102229.50
2022-08-11T13:34:27.986Z,102223.03
2022-08-11T13:36:57.143Z,102214.50
2022-08-11T13:39:26.928Z,102217.81
2022-08-11T13:41:56.766Z,102213.66
2022-08-11T13:44:30.267Z,102210.72
2022-08-11T13:47:01.812Z,102216.00
2022-08-11T13:49:31.470Z,102213.34
2022-08-11T13:51:59.789Z,102209.53
2022-08-11T13:54:34.490Z,102214.50
2022-08-11T13:57:13.655Z,102207.38
2022-08-11T14:00:12.208Z,102207.03
2022-08-11T14:02:52.448Z,102201.78
2022-08-11T14:05:25.738Z,102195.63
2022-08-11T14:07:59.169Z,102190.50
2022-08-11T14:10:30.217Z,102201.78
2022-08-11T14:13:29.233Z,102197.31
2022-08-11T14:16:25.078Z,102189.72
2022-08-11T14:18:57.625Z,102189.56
2022-08-11T14:21:43.771Z,102183.59
2022-08-11T14:24:11.749Z,102181.44
2022-08-11T14:26:43.448Z,102180.13
2022-08-11T14:29:14.143Z,102176.16
2022-08-11T14:31:46.019Z,102169.91
2022-08-11T14:34:14.700Z,102175.03
2022-08-11T14:36:45.772Z,102167.59
2022-08-11T14:39:18.327Z,102165.44
2022-08-11T14:42:13.751Z,102172.22
2022-08-11T14:45:05.827Z,102172.06
2022-08-11T14:47:37.695Z,102166.78
2022-08-11T14:50:12.072Z,102167.09
2022-08-11T14:53:00.804Z,102172.69
2022-08-11T14:55:55.928Z,102162.94
2022-08-11T14:58:26.189Z,102165.44
2022-08-11T15:00:56.247Z,102158.34
2022-08-11T15:03:28.203Z,102157.16
2022-08-11T15:05:58.565Z,102156.66
2022-08-11T15:08:54.802Z,102161.28
2022-08-11T15:11:44.003Z,102152.03
2022-08-11T15:14:12.269Z,102148.25
2022-08-11T15:17:01.610Z,102145.44
2022-08-11T15:19:40.506Z,102143.97
2022-08-11T15:22:28.179Z,102145.94
2022-08-11T15:24:54.999Z,102141.50
2022-08-11T15:27:42.674Z,102136.53
2022-08-11T15:30:33.045Z,102141.16
2022-08-11T15:33:23.476Z,102133.22
2022-08-11T15:36:10.966Z,102134.53
2022-08-11T15:38:44.689Z,102125.00
2022-08-11T15:41:36.197Z,102133.88
2022-08-11T15:44:58.915Z,102134.22
2022-08-11T15:47:18.714Z,102120.69
2022-08-11T15:50:09.855Z,102120.66
2022-08-11T15:52:43.669Z,102115.75
2022-08-11T15:55:11.224Z,102119.03
2022-08-11T15:57:58.087Z,102114.75
2022-08-11T16:00:44.449Z,102114.41
2022-08-11T16:04:06.347Z,102117.53
2022-08-11T16:06:19.878Z,102110.13
2022-08-11T16:08:52.615Z,102114.41
2022-08-11T16:11:21.569Z,102104.50
2022-08-11T16:14:08.356Z,102105.50
2022-08-11T16:16:36.505Z,102106.63
2022-08-11T16:19:04.873Z,102110.13
2022-08-11T16:21:37.188Z,102107.47
2022-08-11T16:24:07.811Z,102098.56
2022-08-11T16:27:11.775Z,102100.56
2022-08-11T16:29:26.119Z,102098.84
2022-08-11T16:32:14.745Z,102095.91
2022-08-11T16:35:03.098Z,102100.03
2022-08-11T16:37:52.061Z,102094.38
2022-08-11T16:40:22.764Z,102094.06
2022-08-11T16:43:11.686Z,102082.81
2022-08-11T16:45:58.800Z,102094.72
2022-08-11T16:48:35.310Z,102091.53
2022-08-11T16:51:05.011Z,102086.59
2022-08-11T16:53:48.991Z,102089.56
2022-08-11T16:56:45.343Z,102079.25
2022-08-11T16:59:19.885Z,102079.25
2022-08-11T17:01:47.198Z,102080.00
2022-08-11T17:04:48.889Z,102079.88
2022-08-11T17:07:51.387Z,102078.81
2022-08-11T17:10:56.459Z,102076.69
2022-08-11T17:13:35.147Z,102071.41
2022-08-11T17:16:07.206Z,102066.09
2022-08-11T17:18:43.140Z,102068.72
2022-08-11T17:21:20.922Z,102071.81
2022-08-11T17:23:52.082Z,102073.28
2022-08-11T17:26:55.686Z,102073.19
2022-08-11T17:29:53.668Z,102064.63
2022-08-11T17:32:55.938Z,102071.84
2022-08-11T17:35:33.236Z,102076.13
2022-08-11T17:38:07.588Z,102066.31
2022-08-11T17:40:38.881Z,102072.16
2022-08-11T17:43:28.467Z,102069.63
2022-08-11T17:46:15.167Z,102068.59
2022-08-11T17:48:47.846Z,102068.91
2022-08-11T17:51:38.695Z,102067.91
2022-08-11T17:54:25.996Z,102075.03
2022-08-11T17:57:21.291Z,102068.47
2022-08-11T17:59:52.849Z,102072.63
2022-08-11T18:02:44.907Z,102074.28
2022-08-11T18:05:13.739Z,102069.94
2022-08-11T18:08:04.297Z,102069.06
2022-08-11T18:10:51.351Z,102077.34
2022-08-11T18:13:40.285Z,102073.22
2022-08-11T18:16:26.478Z,102073.88
2022-08-11T18:19:14.008Z,102073.69
2022-08-11T18:22:14.498Z,102073.06
2022-08-11T18:25:10.431Z,102074.66
2022-08-11T18:27:59.207Z,102078.97
2022-08-11T18:30:45.572Z,102080.91
2022-08-11T18:33:56.640Z,102078.94
2022-08-11T18:36:42.922Z,102087.78
2022-08-11T18:39:31.673Z,102080.16
2022-08-11T18:42:29.562Z,102086.19
2022-08-11T18:45:20.288Z,102087.25
2022-08-11T18:48:11.638Z,102083.66
2022-08-11T18:51:29.814Z,102092.72
2022-08-11T18:54:11.230Z,102089.88
2022-08-11T18:56:57.874Z,102088.38
2022-08-11T18:59:46.509Z,102087.03
2022-08-11T19:02:48.652Z,102091.88
2022-08-11T19:06:31.816Z,102094.94
2022-08-11T19:08:56.355Z,102112.84
2022-08-11T19:11:44.419Z,102106.25
2022-08-11T19:14:32.293Z,102114.41
2022-08-11T19:17:44.526Z,102106.44
2022-08-11T19:20:31.925Z,102107.34
2022-08-11T19:23:18.466Z,102115.06
2022-08-11T19:26:05.940Z,102114.13
2022-08-11T19:28:53.710Z,102116.53
2022-08-11T19:31:44.419Z,102119.78
2022-08-11T19:34:35.924Z,102120.72
2022-08-11T19:37:25.316Z,102117.97
2022-08-11T19:40:21.134Z,102121.31
2022-08-11T19:43:11.171Z,102121.25
2022-08-11T19:46:09.664Z,102128.59
2022-08-11T19:48:56.561Z,102122.25
2022-08-11T19:51:46.410Z,102124.50
2022-08-11T19:54:33.662Z,102125.59
2022-08-11T19:57:21.629Z,102119.56
2022-08-11T20:00:08.128Z,102122.59
2022-08-11T20:02:53.968Z,102123.41
2022-08-11T20:05:39.574Z,102124.22
2022-08-11T20:08:42.229Z,102114.22
2022-08-11T20:11:29.398Z,102121.44
2022-08-11T20:14:15.454Z,102126.16
2022-08-11T20:17:01.741Z,102122.47
2022-08-11T20:19:54.773Z,102121.03
2022-08-11T20:22:45.317Z,102127.69
2022-08-11T20:25:31.619Z,102129.25
2022-08-11T20:28:16.686Z,102131.63
2022-08-11T20:31:04.629Z,102140.09
2022-08-11T20:33:52.043Z,102134.84
2022-08-11T20:36:37.013Z,102139.81
2022-08-11T20:39:24.571Z,102140.66
2022-08-11T20:42:12.270Z,102131.00
2022-08-11T20:44:59.686Z,102140.56
2022-08-11T20:47:59.206Z,102128.97
2022-08-11T20:50:47.039Z,102133.84
2022-08-11T20:53:35.906Z,102132.84
2022-08-11T20:56:28.195Z,102141.59
2022-08-11T20:59:18.119Z,102135.66
2022-08-11T21:02:09.837Z,102141.34
2022-08-11T21:04:55.903Z,102134.56
2022-08-11T21:07:44.286Z,102135.56
2022-08-11T21:10:44.760Z,102131.06
2022-08-11T21:13:33.476Z,102129.22
2022-08-11T21:16:26.606Z,102147.72
2022-08-11T21:19:55.162Z,102144.41
2022-08-11T21:22:31.993Z,102146.09
2022-08-11T21:25:18.869Z,102144.38
2022-08-11T21:28:08.430Z,102139.28
2022-08-11T21:30:57.754Z,102143.47
2022-08-11T21:33:46.920Z,102137.16
2022-08-11T21:36:33.534Z,102143.47
2022-08-11T21:39:25.151Z,102132.63
2022-08-11T21:42:13.480Z,102135.25
2022-08-11T21:45:01.592Z,102122.16
2022-08-11T21:47:48.550Z,102136.28
2022-08-11T21:50:34.031Z,102138.97
2022-08-11T21:53:19.932Z,102138.88
2022-08-11T21:56:06.717Z,102147.59
2022-08-11T21:58:52.999Z,102139.19
2022-08-11T22:01:39.838Z,102143.22
2022-08-11T22:04:26.084Z,102139.69
2022-08-11T22:07:12.077Z,102143.13
2022-08-11T22:09:57.647Z,102139.69
2022-08-11T22:12:45.267Z,102147.69
2022-08-11T22:15:31.569Z,102137.34
2022-08-11T22:18:17.039Z,102146.84
2022-08-11T22:21:03.600Z,102142.91
2022-08-11T22:23:51.856Z,102148.34
2022-08-11T22:26:39.631Z,102136.13
2022-08-11T22:29:38.014Z,102135.44
2022-08-11T22:32:33.482Z,102138.66
2022-08-11T22:35:20.911Z,102139.97
2022-08-11T22:38:07.502Z,102133.78
2022-08-11T22:40:55.374Z,102137.41
2022-08-11T22:43:40.809Z,102136.41
2022-08-11T22:46:26.727Z,102141.69
2022-08-11T22:49:12.663Z,102144.72
2022-08-11T22:52:01.104Z,102147.03
2022-08-11T22:54:47.198Z,102145.59
2022-08-11T22:57:33.662Z,102145.00
2022-08-11T23:00:20.112Z,102150.25
2022-08-11T23:03:06.212Z,102148.19
2022-08-11T23:05:56.517Z,102150.44
2022-08-11T23:08:42.621Z,102157.06
2022-08-11T23:11:27.613Z,102143.25
2022-08-11T23:14:33.445Z,102156.53
2022-08-11T23:17:19.122Z,102148.81
2022-08-11T23:20:16.722Z,102144.75
2022-08-11T23:23:10.907Z,102141.44
2022-08-11T23:25:58.211Z,102148.31
2022-08-11T23:28:45.642Z,102139.78
2022-08-11T23:31:50.537Z,102145.09
2022-08-11T23:35:03.769Z,102136.59
2022-08-11T23:37:50.630Z,102145.53
2022-08-11T23:40:35.599Z,102133.25
2022-08-11T23:43:21.490Z,102135.88
2022-08-11T23:46:06.739Z,102142.34
2022-08-11T23:48:52.562Z,102136.72
2022-08-11T23:51:40.997Z,102134.81
2022-08-11T23:54:28.312Z,102130.75
2022-08-11T23:57:13.814Z,102134.00
2022-08-11T23:59:58.897Z,102129.56
